sensor_id;sensor_type;location;lat;lon;timestamp;P1;durP1;ratioP1;P2;durP2;ratioP2
25091;SDS011;13082;52.374;4.946;2022-08-23T00:01:09;12.05;;;3.97;;
25091;SDS011;13082;52.374;4.946;2022-08-23T00:03:36;8.98;;;4.07;;
25091;SDS011;13082;52.374;4.946;2022-08-23T00:06:02;8.32;;;4.10;;
25091;SDS011;13082;52.374;4.946;2022-08-23T00:08:28;8.75;;;3.30;;
25091;SDS011;13082;52.374;4.946;2022-08-23T00:10:56;9.30;;;3.63;;
25091;SDS011;13082;52.374;4.946;2022-08-23T00:13:22;3.80;;;3.40;;
25091;SDS011;13082;52.374;4.946;2022-08-23T00:15:48;5.38;;;3.45;;
25091;SDS011;13082;52.374;4.946;2022-08-23T00:18:14;6.35;;;3.70;;
25091;SDS011;13082;52.374;4.946;2022-08-23T00:20:40;5.07;;;3.40;;
25091;SDS011;13082;52.374;4.946;2022-08-23T00:23:06;8.77;;;3.80;;
25091;SDS011;13082;52.374;4.946;2022-08-23T00:25:31;9.43;;;4.18;;
25091;SDS011;13082;52.374;4.946;2022-08-23T00:27:57;7.30;;;3.42;;
25091;SDS011;13082;52.374;4.946;2022-08-23T00:30:23;10.10;;;3.35;;
25091;SDS011;13082;52.374;4.946;2022-08-23T00:32:49;7.38;;;3.60;;
25091;SDS011;13082;52.374;4.946;2022-08-23T00:35:15;11.82;;;4.43;;
25091;SDS011;13082;52.374;4.946;2022-08-23T00:37:41;10.38;;;3.75;;
25091;SDS011;13082;52.374;4.946;2022-08-23T00:40:08;6.53;;;3.70;;
25091;SDS011;13082;52.374;4.946;2022-08-23T00:46:44;4.10;;;3.70;;
25091;SDS011;13082;52.374;4.946;2022-08-23T00:49:00;7.13;;;3.50;;
25091;SDS011;13082;52.374;4.946;2022-08-23T00:51:35;8.63;;;3.85;;
25091;SDS011;13082;52.374;4.946;2022-08-23T00:54:09;7.72;;;3.67;;
25091;SDS011;13082;52.374;4.946;2022-08-23T00:56:35;6.38;;;3.75;;
25091;SDS011;13082;52.374;4.946;2022-08-23T00:59:03;8.60;;;3.50;;
25091;SDS011;13082;52.374;4.946;2022-08-23T01:01:30;4.88;;;3.60;;
25091;SDS011;13082;52.374;4.946;2022-08-23T01:03:56;5.88;;;3.72;;
25091;SDS011;13082;52.374;4.946;2022-08-23T01:06:28;7.32;;;3.83;;
25091;SDS011;13082;52.374;4.946;2022-08-23T01:09:00;6.40;;;4.10;;
25091;SDS011;13082;52.374;4.946;2022-08-23T01:11:38;6.05;;;3.30;;
25091;SDS011;13082;52.374;4.946;2022-08-23T01:14:29;6.70;;;3.40;;
25091;SDS011;13082;52.374;4.946;2022-08-23T01:17:08;5.30;;;3.17;;
25091;SDS011;13082;52.374;4.946;2022-08-23T01:19:48;8.25;;;3.65;;
25091;SDS011;13082;52.374;4.946;2022-08-23T01:25:01;3.88;;;3.47;;
25091;SDS011;13082;52.374;4.946;2022-08-23T01:27:32;7.22;;;3.78;;
25091;SDS011;13082;52.374;4.946;2022-08-23T01:29:58;9.13;;;3.63;;
25091;SDS011;13082;52.374;4.946;2022-08-23T01:32:23;6.40;;;3.25;;
25091;SDS011;13082;52.374;4.946;2022-08-23T01:34:49;6.97;;;3.60;;
25091;SDS011;13082;52.374;4.946;2022-08-23T01:37:15;4.15;;;3.20;;
25091;SDS011;13082;52.374;4.946;2022-08-23T01:39:43;6.13;;;4.18;;
25091;SDS011;13082;52.374;4.946;2022-08-23T01:42:08;7.15;;;4.30;;
25091;SDS011;13082;52.374;4.946;2022-08-23T01:44:34;6.28;;;3.15;;
25091;SDS011;13082;52.374;4.946;2022-08-23T01:47:00;6.97;;;3.67;;
25091;SDS011;13082;52.374;4.946;2022-08-23T01:49:25;8.60;;;4.43;;
25091;SDS011;13082;52.374;4.946;2022-08-23T01:51:51;4.70;;;3.30;;
25091;SDS011;13082;52.374;4.946;2022-08-23T01:54:16;6.30;;;3.78;;
25091;SDS011;13082;52.374;4.946;2022-08-23T01:56:42;8.50;;;4.20;;
25091;SDS011;13082;52.374;4.946;2022-08-23T01:59:09;5.45;;;3.70;;
25091;SDS011;13082;52.374;4.946;2022-08-23T02:01:36;6.75;;;4.32;;
25091;SDS011;13082;52.374;4.946;2022-08-23T02:04:02;5.55;;;3.55;;
25091;SDS011;13082;52.374;4.946;2022-08-23T02:06:28;5.43;;;3.70;;
25091;SDS011;13082;52.374;4.946;2022-08-23T02:08:54;6.10;;;4.18;;
25091;SDS011;13082;52.374;4.946;2022-08-23T02:11:26;7.32;;;3.53;;
25091;SDS011;13082;52.374;4.946;2022-08-23T02:13:57;6.72;;;4.32;;
25091;SDS011;13082;52.374;4.946;2022-08-23T02:16:26;7.40;;;3.83;;
25091;SDS011;13082;52.374;4.946;2022-08-23T02:18:54;6.78;;;4.10;;
25091;SDS011;13082;52.374;4.946;2022-08-23T02:21:20;8.55;;;3.95;;
25091;SDS011;13082;52.374;4.946;2022-08-23T02:23:46;8.20;;;4.05;;
25091;SDS011;13082;52.374;4.946;2022-08-23T02:26:13;6.47;;;4.43;;
25091;SDS011;13082;52.374;4.946;2022-08-23T02:28:39;7.78;;;4.30;;
25091;SDS011;13082;52.374;4.946;2022-08-23T02:31:05;6.07;;;3.80;;
25091;SDS011;13082;52.374;4.946;2022-08-23T02:33:31;4.15;;;3.75;;
25091;SDS011;13082;52.374;4.946;2022-08-23T02:35:57;5.63;;;3.88;;
25091;SDS011;13082;52.374;4.946;2022-08-23T02:38:22;4.90;;;3.22;;
25091;SDS011;13082;52.374;4.946;2022-08-23T02:40:48;5.85;;;3.47;;
25091;SDS011;13082;52.374;4.946;2022-08-23T02:43:14;4.85;;;3.47;;
25091;SDS011;13082;52.374;4.946;2022-08-23T02:45:40;4.35;;;3.50;;
25091;SDS011;13082;52.374;4.946;2022-08-23T02:48:07;6.50;;;3.47;;
25091;SDS011;13082;52.374;4.946;2022-08-23T02:50:34;4.57;;;3.83;;
25091;SDS011;13082;52.374;4.946;2022-08-23T02:53:00;6.30;;;4.18;;
25091;SDS011;13082;52.374;4.946;2022-08-23T02:55:25;8.05;;;4.30;;
25091;SDS011;13082;52.374;4.946;2022-08-23T02:57:51;5.65;;;3.67;;
25091;SDS011;13082;52.374;4.946;2022-08-23T03:00:17;6.40;;;4.03;;
25091;SDS011;13082;52.374;4.946;2022-08-23T03:02:44;5.88;;;4.45;;
25091;SDS011;13082;52.374;4.946;2022-08-23T03:05:10;4.78;;;3.83;;
25091;SDS011;13082;52.374;4.946;2022-08-23T03:07:37;6.03;;;3.83;;
25091;SDS011;13082;52.374;4.946;2022-08-23T03:10:03;6.22;;;3.78;;
25091;SDS011;13082;52.374;4.946;2022-08-23T03:12:31;5.72;;;3.88;;
25091;SDS011;13082;52.374;4.946;2022-08-23T03:14:56;8.43;;;3.90;;
25091;SDS011;13082;52.374;4.946;2022-08-23T03:17:22;9.10;;;4.45;;
25091;SDS011;13082;52.374;4.946;2022-08-23T03:19:48;6.32;;;4.05;;
25091;SDS011;13082;52.374;4.946;2022-08-23T03:22:16;6.20;;;3.58;;
25091;SDS011;13082;52.374;4.946;2022-08-23T03:24:42;5.47;;;3.47;;
25091;SDS011;13082;52.374;4.946;2022-08-23T03:27:09;5.90;;;3.88;;
25091;SDS011;13082;52.374;4.946;2022-08-23T03:29:35;4.47;;;3.42;;
25091;SDS011;13082;52.374;4.946;2022-08-23T03:32:01;6.82;;;3.42;;
25091;SDS011;13082;52.374;4.946;2022-08-23T03:34:28;6.28;;;4.30;;
25091;SDS011;13082;52.374;4.946;2022-08-23T03:36:55;7.75;;;4.95;;
25091;SDS011;13082;52.374;4.946;2022-08-23T03:39:21;8.30;;;3.90;;
25091;SDS011;13082;52.374;4.946;2022-08-23T03:41:47;6.45;;;4.20;;
25091;SDS011;13082;52.374;4.946;2022-08-23T03:44:13;14.25;;;5.00;;
25091;SDS011;13082;52.374;4.946;2022-08-23T03:46:38;6.70;;;3.60;;
25091;SDS011;13082;52.374;4.946;2022-08-23T03:49:04;6.85;;;3.70;;
25091;SDS011;13082;52.374;4.946;2022-08-23T03:51:30;8.38;;;4.20;;
25091;SDS011;13082;52.374;4.946;2022-08-23T03:53:58;7.57;;;4.55;;
25091;SDS011;13082;52.374;4.946;2022-08-23T03:56:29;6.55;;;4.40;;
25091;SDS011;13082;52.374;4.946;2022-08-23T03:58:58;7.03;;;4.32;;
25091;SDS011;13082;52.374;4.946;2022-08-23T04:01:26;7.82;;;4.55;;
25091;SDS011;13082;52.374;4.946;2022-08-23T04:03:51;6.32;;;4.45;;
25091;SDS011;13082;52.374;4.946;2022-08-23T04:06:17;6.65;;;4.03;;
25091;SDS011;13082;52.374;4.946;2022-08-23T04:08:43;6.45;;;4.43;;
25091;SDS011;13082;52.374;4.946;2022-08-23T04:11:09;7.45;;;4.60;;
25091;SDS011;13082;52.374;4.946;2022-08-23T04:13:37;7.07;;;4.03;;
25091;SDS011;13082;52.374;4.946;2022-08-23T04:16:03;7.45;;;3.63;;
25091;SDS011;13082;52.374;4.946;2022-08-23T04:18:30;7.22;;;4.22;;
25091;SDS011;13082;52.374;4.946;2022-08-23T04:20:57;10.45;;;4.88;;
25091;SDS011;13082;52.374;4.946;2022-08-23T04:23:25;5.50;;;4.07;;
25091;SDS011;13082;52.374;4.946;2022-08-23T04:25:52;6.20;;;4.18;;
25091;SDS011;13082;52.374;4.946;2022-08-23T04:28:21;8.35;;;4.75;;
25091;SDS011;13082;52.374;4.946;2022-08-23T04:30:48;6.38;;;4.15;;
25091;SDS011;13082;52.374;4.946;2022-08-23T04:33:14;14.75;;;4.50;;
25091;SDS011;13082;52.374;4.946;2022-08-23T04:35:40;5.72;;;4.13;;
25091;SDS011;13082;52.374;4.946;2022-08-23T04:38:06;6.07;;;3.80;;
25091;SDS011;13082;52.374;4.946;2022-08-23T04:40:31;7.22;;;4.95;;
25091;SDS011;13082;52.374;4.946;2022-08-23T04:43:15;6.53;;;4.22;;
25091;SDS011;13082;52.374;4.946;2022-08-23T04:45:41;6.22;;;4.30;;
25091;SDS011;13082;52.374;4.946;2022-08-23T04:48:07;8.63;;;4.35;;
25091;SDS011;13082;52.374;4.946;2022-08-23T04:50:33;5.47;;;4.45;;
25091;SDS011;13082;52.374;4.946;2022-08-23T04:53:00;9.05;;;4.68;;
25091;SDS011;13082;52.374;4.946;2022-08-23T04:55:26;7.75;;;4.68;;
25091;SDS011;13082;52.374;4.946;2022-08-23T04:57:52;7.82;;;4.72;;
25091;SDS011;13082;52.374;4.946;2022-08-23T05:00:18;7.45;;;4.38;;
25091;SDS011;13082;52.374;4.946;2022-08-23T05:02:43;5.38;;;4.35;;
25091;SDS011;13082;52.374;4.946;2022-08-23T05:05:10;9.07;;;4.20;;
25091;SDS011;13082;52.374;4.946;2022-08-23T05:07:37;6.32;;;4.32;;
25091;SDS011;13082;52.374;4.946;2022-08-23T05:10:04;8.95;;;4.82;;
25091;SDS011;13082;52.374;4.946;2022-08-23T05:12:31;7.03;;;4.25;;
25091;SDS011;13082;52.374;4.946;2022-08-23T05:14:57;9.35;;;4.30;;
25091;SDS011;13082;52.374;4.946;2022-08-23T05:17:23;8.57;;;4.28;;
25091;SDS011;13082;52.374;4.946;2022-08-23T05:19:49;8.60;;;4.72;;
25091;SDS011;13082;52.374;4.946;2022-08-23T05:22:15;13.15;;;4.70;;
25091;SDS011;13082;52.374;4.946;2022-08-23T05:24:41;8.80;;;4.32;;
25091;SDS011;13082;52.374;4.946;2022-08-23T05:27:06;8.98;;;4.85;;
25091;SDS011;13082;52.374;4.946;2022-08-23T05:29:32;8.50;;;4.43;;
25091;SDS011;13082;52.374;4.946;2022-08-23T05:31:57;4.97;;;3.95;;
25091;SDS011;13082;52.374;4.946;2022-08-23T05:34:23;7.15;;;4.50;;
25091;SDS011;13082;52.374;4.946;2022-08-23T05:36:49;5.72;;;3.80;;
25091;SDS011;13082;52.374;4.946;2022-08-23T05:39:17;9.98;;;4.50;;
25091;SDS011;13082;52.374;4.946;2022-08-23T05:41:42;5.75;;;4.68;;
25091;SDS011;13082;52.374;4.946;2022-08-23T05:44:08;5.30;;;4.22;;
25091;SDS011;13082;52.374;4.946;2022-08-23T05:46:34;5.43;;;4.38;;
25091;SDS011;13082;52.374;4.946;2022-08-23T05:49:01;5.55;;;3.30;;
25091;SDS011;13082;52.374;4.946;2022-08-23T05:51:29;6.45;;;4.38;;
25091;SDS011;13082;52.374;4.946;2022-08-23T05:53:58;9.77;;;5.03;;
25091;SDS011;13082;52.374;4.946;2022-08-23T05:56:29;6.00;;;4.47;;
25091;SDS011;13082;52.374;4.946;2022-08-23T05:58:59;11.57;;;5.80;;
25091;SDS011;13082;52.374;4.946;2022-08-23T06:01:28;7.30;;;4.57;;
25091;SDS011;13082;52.374;4.946;2022-08-23T06:03:54;9.93;;;5.05;;
25091;SDS011;13082;52.374;4.946;2022-08-23T06:06:20;9.32;;;5.47;;
25091;SDS011;13082;52.374;4.946;2022-08-23T06:08:46;7.65;;;5.85;;
25091;SDS011;13082;52.374;4.946;2022-08-23T06:11:16;7.32;;;4.90;;
25091;SDS011;13082;52.374;4.946;2022-08-23T06:13:45;8.70;;;4.63;;
25091;SDS011;13082;52.374;4.946;2022-08-23T06:16:17;6.97;;;5.10;;
25091;SDS011;13082;52.374;4.946;2022-08-23T06:18:44;7.30;;;5.40;;
25091;SDS011;13082;52.374;4.946;2022-08-23T06:21:11;11.82;;;5.82;;
25091;SDS011;13082;52.374;4.946;2022-08-23T06:23:39;7.50;;;5.32;;
25091;SDS011;13082;52.374;4.946;2022-08-23T06:26:13;13.65;;;5.97;;
25091;SDS011;13082;52.374;4.946;2022-08-23T06:28:50;11.20;;;5.88;;
25091;SDS011;13082;52.374;4.946;2022-08-23T06:31:17;8.00;;;5.18;;
25091;SDS011;13082;52.374;4.946;2022-08-23T06:34:05;9.85;;;5.57;;
25091;SDS011;13082;52.374;4.946;2022-08-23T06:36:32;8.30;;;5.78;;
25091;SDS011;13082;52.374;4.946;2022-08-23T06:38:58;13.00;;;5.38;;
25091;SDS011;13082;52.374;4.946;2022-08-23T06:41:24;8.68;;;5.22;;
25091;SDS011;13082;52.374;4.946;2022-08-23T06:43:49;9.48;;;5.88;;
25091;SDS011;13082;52.374;4.946;2022-08-23T06:46:19;7.45;;;4.65;;
25091;SDS011;13082;52.374;4.946;2022-08-23T06:48:47;9.45;;;5.85;;
25091;SDS011;13082;52.374;4.946;2022-08-23T06:51:13;10.40;;;5.53;;
25091;SDS011;13082;52.374;4.946;2022-08-23T06:53:50;9.68;;;5.35;;
25091;SDS011;13082;52.374;4.946;2022-08-23T06:56:21;9.10;;;5.57;;
25091;SDS011;13082;52.374;4.946;2022-08-23T06:58:48;10.90;;;6.10;;
25091;SDS011;13082;52.374;4.946;2022-08-23T07:01:35;11.45;;;5.20;;
25091;SDS011;13082;52.374;4.946;2022-08-23T07:04:09;11.23;;;4.93;;
25091;SDS011;13082;52.374;4.946;2022-08-23T07:06:36;11.05;;;4.95;;
25091;SDS011;13082;52.374;4.946;2022-08-23T07:09:03;9.43;;;5.57;;
25091;SDS011;13082;52.374;4.946;2022-08-23T07:11:29;11.32;;;6.10;;
25091;SDS011;13082;52.374;4.946;2022-08-23T07:13:59;10.90;;;5.10;;
25091;SDS011;13082;52.374;4.946;2022-08-23T07:16:37;11.10;;;5.00;;
25091;SDS011;13082;52.374;4.946;2022-08-23T07:19:08;10.27;;;5.13;;
25091;SDS011;13082;52.374;4.946;2022-08-23T07:21:35;8.27;;;4.72;;
25091;SDS011;13082;52.374;4.946;2022-08-23T07:24:01;8.77;;;4.75;;
25091;SDS011;13082;52.374;4.946;2022-08-23T07:26:28;12.70;;;6.07;;
25091;SDS011;13082;52.374;4.946;2022-08-23T07:28:53;7.00;;;5.15;;
25091;SDS011;13082;52.374;4.946;2022-08-23T07:33:51;8.30;;;5.65;;
25091;SDS011;13082;52.374;4.946;2022-08-23T07:36:18;7.60;;;4.78;;
25091;SDS011;13082;52.374;4.946;2022-08-23T07:38:46;7.43;;;4.18;;
25091;SDS011;13082;52.374;4.946;2022-08-23T07:41:13;11.75;;;4.97;;
25091;SDS011;13082;52.374;4.946;2022-08-23T07:43:39;4.68;;;3.40;;
25091;SDS011;13082;52.374;4.946;2022-08-23T07:46:05;6.68;;;3.67;;
25091;SDS011;13082;52.374;4.946;2022-08-23T07:48:32;6.82;;;3.33;;
25091;SDS011;13082;52.374;4.946;2022-08-23T07:51:01;6.80;;;3.42;;
25091;SDS011;13082;52.374;4.946;2022-08-23T07:53:30;8.50;;;3.30;;
25091;SDS011;13082;52.374;4.946;2022-08-23T07:55:55;4.97;;;3.10;;
25091;SDS011;13082;52.374;4.946;2022-08-23T07:58:22;3.70;;;2.72;;
25091;SDS011;13082;52.374;4.946;2022-08-23T08:00:48;4.63;;;3.15;;
25091;SDS011;13082;52.374;4.946;2022-08-23T08:03:16;7.70;;;3.22;;
25091;SDS011;13082;52.374;4.946;2022-08-23T08:05:42;5.68;;;3.05;;
25091;SDS011;13082;52.374;4.946;2022-08-23T08:08:08;6.20;;;3.20;;
25091;SDS011;13082;52.374;4.946;2022-08-23T08:10:36;9.27;;;4.00;;
25091;SDS011;13082;52.374;4.946;2022-08-23T08:13:02;7.45;;;4.38;;
25091;SDS011;13082;52.374;4.946;2022-08-23T08:15:29;4.88;;;2.95;;
25091;SDS011;13082;52.374;4.946;2022-08-23T08:17:55;8.10;;;2.63;;
25091;SDS011;13082;52.374;4.946;2022-08-23T08:20:21;2.72;;;2.45;;
25091;SDS011;13082;52.374;4.946;2022-08-23T08:22:47;4.40;;;3.10;;
25091;SDS011;13082;52.374;4.946;2022-08-23T08:25:13;4.65;;;3.25;;
25091;SDS011;13082;52.374;4.946;2022-08-23T08:27:40;2.92;;;2.35;;
25091;SDS011;13082;52.374;4.946;2022-08-23T08:30:06;5.03;;;2.88;;
25091;SDS011;13082;52.374;4.946;2022-08-23T08:32:33;6.35;;;2.92;;
25091;SDS011;13082;52.374;4.946;2022-08-23T08:34:59;8.10;;;2.60;;
25091;SDS011;13082;52.374;4.946;2022-08-23T08:37:26;7.60;;;2.20;;
25091;SDS011;13082;52.374;4.946;2022-08-23T08:39:52;7.78;;;2.58;;
25091;SDS011;13082;52.374;4.946;2022-08-23T08:42:30;3.20;;;2.05;;
25091;SDS011;13082;52.374;4.946;2022-08-23T08:45:15;4.28;;;2.80;;
25091;SDS011;13082;52.374;4.946;2022-08-23T08:48:02;3.65;;;2.67;;
25091;SDS011;13082;52.374;4.946;2022-08-23T08:50:37;7.60;;;3.85;;
25091;SDS011;13082;52.374;4.946;2022-08-23T08:53:07;8.15;;;3.38;;
25091;SDS011;13082;52.374;4.946;2022-08-23T08:55:42;4.43;;;2.58;;
25091;SDS011;13082;52.374;4.946;2022-08-23T08:58:13;3.92;;;2.55;;
25091;SDS011;13082;52.374;4.946;2022-08-23T09:00:45;4.82;;;2.97;;
25091;SDS011;13082;52.374;4.946;2022-08-23T09:03:12;6.40;;;3.13;;
25091;SDS011;13082;52.374;4.946;2022-08-23T09:05:47;6.75;;;3.22;;
25091;SDS011;13082;52.374;4.946;2022-08-23T09:08:44;6.65;;;2.83;;
25091;SDS011;13082;52.374;4.946;2022-08-23T09:11:23;4.97;;;3.15;;
25091;SDS011;13082;52.374;4.946;2022-08-23T09:14:23;4.47;;;2.33;;
25091;SDS011;13082;52.374;4.946;2022-08-23T09:16:56;4.78;;;2.70;;
25091;SDS011;13082;52.374;4.946;2022-08-23T09:19:27;3.65;;;2.47;;
25091;SDS011;13082;52.374;4.946;2022-08-23T09:21:57;4.97;;;2.80;;
25091;SDS011;13082;52.374;4.946;2022-08-23T09:24:29;3.90;;;2.58;;
25091;SDS011;13082;52.374;4.946;2022-08-23T09:26:55;4.38;;;2.55;;
25091;SDS011;13082;52.374;4.946;2022-08-23T09:29:25;4.10;;;2.33;;
25091;SDS011;13082;52.374;4.946;2022-08-23T09:37:10;6.18;;;2.28;;
25091;SDS011;13082;52.374;4.946;2022-08-23T09:39:51;3.08;;;1.65;;
25091;SDS011;13082;52.374;4.946;2022-08-23T09:42:37;5.03;;;1.90;;
25091;SDS011;13082;52.374;4.946;2022-08-23T09:47:53;4.25;;;2.33;;
25091;SDS011;13082;52.374;4.946;2022-08-23T09:53:22;4.53;;;2.92;;
25091;SDS011;13082;52.374;4.946;2022-08-23T09:55:49;5.97;;;2.17;;
25091;SDS011;13082;52.374;4.946;2022-08-23T10:03:35;4.80;;;2.25;;
25091;SDS011;13082;52.374;4.946;2022-08-23T10:06:01;5.85;;;2.88;;
25091;SDS011;13082;52.374;4.946;2022-08-23T10:08:28;9.15;;;3.00;;
25091;SDS011;13082;52.374;4.946;2022-08-23T10:11:10;4.85;;;2.53;;
25091;SDS011;13082;52.374;4.946;2022-08-23T10:13:41;5.15;;;2.85;;
25091;SDS011;13082;52.374;4.946;2022-08-23T10:30:17;3.13;;;1.83;;
25091;SDS011;13082;52.374;4.946;2022-08-23T10:38:10;2.58;;;2.17;;
25091;SDS011;13082;52.374;4.946;2022-08-23T10:41:02;2.75;;;1.58;;
25091;SDS011;13082;52.374;4.946;2022-08-23T10:43:44;4.95;;;1.90;;
25091;SDS011;13082;52.374;4.946;2022-08-23T10:46:18;2.33;;;1.90;;
25091;SDS011;13082;52.374;4.946;2022-08-23T10:48:53;3.13;;;1.92;;
25091;SDS011;13082;52.374;4.946;2022-08-23T10:51:25;3.72;;;2.03;;
25091;SDS011;13082;52.374;4.946;2022-08-23T10:53:57;5.40;;;2.30;;
25091;SDS011;13082;52.374;4.946;2022-08-23T10:56:30;4.85;;;2.10;;
25091;SDS011;13082;52.374;4.946;2022-08-23T11:07:00;6.78;;;2.30;;
25091;SDS011;13082;52.374;4.946;2022-08-23T11:12:48;8.95;;;2.65;;
25091;SDS011;13082;52.374;4.946;2022-08-23T11:26:04;4.93;;;2.00;;
25091;SDS011;13082;52.374;4.946;2022-08-23T11:28:43;3.88;;;2.22;;
25091;SDS011;13082;52.374;4.946;2022-08-23T11:36:31;4.88;;;2.40;;
25091;SDS011;13082;52.374;4.946;2022-08-23T11:41:30;4.43;;;3.05;;
25091;SDS011;13082;52.374;4.946;2022-08-23T12:00:26;4.60;;;1.60;;
25091;SDS011;13082;52.374;4.946;2022-08-23T12:03:22;3.58;;;2.00;;
25091;SDS011;13082;52.374;4.946;2022-08-23T12:11:19;6.75;;;2.03;;
25091;SDS011;13082;52.374;4.946;2022-08-23T12:13:49;4.80;;;1.75;;
25091;SDS011;13082;52.374;4.946;2022-08-23T12:21:18;2.95;;;1.95;;
25091;SDS011;13082;52.374;4.946;2022-08-23T12:23:59;6.03;;;1.88;;
25091;SDS011;13082;52.374;4.946;2022-08-23T12:29:03;2.20;;;1.50;;
25091;SDS011;13082;52.374;4.946;2022-08-23T12:31:54;6.15;;;1.50;;
25091;SDS011;13082;52.374;4.946;2022-08-23T12:39:30;4.97;;;1.77;;
25091;SDS011;13082;52.374;4.946;2022-08-23T12:42:34;3.25;;;2.28;;
25091;SDS011;13082;52.374;4.946;2022-08-23T12:44:59;4.28;;;2.10;;
25091;SDS011;13082;52.374;4.946;2022-08-23T12:47:25;3.03;;;2.28;;
25091;SDS011;13082;52.374;4.946;2022-08-23T12:52:25;5.35;;;2.50;;
25091;SDS011;13082;52.374;4.946;2022-08-23T12:54:54;7.03;;;2.28;;
25091;SDS011;13082;52.374;4.946;2022-08-23T12:57:29;4.60;;;2.13;;
25091;SDS011;13082;52.374;4.946;2022-08-23T13:02:32;4.63;;;2.40;;
25091;SDS011;13082;52.374;4.946;2022-08-23T13:05:05;10.38;;;2.95;;
25091;SDS011;13082;52.374;4.946;2022-08-23T13:07:35;3.00;;;1.60;;
25091;SDS011;13082;52.374;4.946;2022-08-23T13:10:03;2.33;;;2.13;;
25091;SDS011;13082;52.374;4.946;2022-08-23T13:12:31;4.28;;;1.90;;
25091;SDS011;13082;52.374;4.946;2022-08-23T13:14:56;3.47;;;1.88;;
25091;SDS011;13082;52.374;4.946;2022-08-23T13:19:52;3.90;;;1.90;;
25091;SDS011;13082;52.374;4.946;2022-08-23T13:22:34;10.63;;;2.30;;
25091;SDS011;13082;52.374;4.946;2022-08-23T13:25:11;4.85;;;1.98;;
25091;SDS011;13082;52.374;4.946;2022-08-23T13:27:54;4.22;;;2.38;;
25091;SDS011;13082;52.374;4.946;2022-08-23T13:30:23;6.80;;;2.85;;
25091;SDS011;13082;52.374;4.946;2022-08-23T13:33:15;3.05;;;1.95;;
25091;SDS011;13082;52.374;4.946;2022-08-23T13:35:47;5.85;;;1.90;;
25091;SDS011;13082;52.374;4.946;2022-08-23T13:40:58;5.72;;;2.00;;
25091;SDS011;13082;52.374;4.946;2022-08-23T13:43:44;7.50;;;2.80;;
25091;SDS011;13082;52.374;4.946;2022-08-23T13:46:18;2.85;;;2.15;;
25091;SDS011;13082;52.374;4.946;2022-08-23T13:48:50;4.45;;;2.15;;
25091;SDS011;13082;52.374;4.946;2022-08-23T13:53:53;4.00;;;2.40;;
25091;SDS011;13082;52.374;4.946;2022-08-23T13:56:20;4.03;;;1.75;;
25091;SDS011;13082;52.374;4.946;2022-08-23T13:58:51;3.45;;;2.20;;
25091;SDS011;13082;52.374;4.946;2022-08-23T14:01:19;4.35;;;2.25;;
25091;SDS011;13082;52.374;4.946;2022-08-23T14:03:44;4.38;;;2.00;;
25091;SDS011;13082;52.374;4.946;2022-08-23T14:06:10;6.20;;;1.92;;
25091;SDS011;13082;52.374;4.946;2022-08-23T14:08:36;3.10;;;1.80;;
25091;SDS011;13082;52.374;4.946;2022-08-23T14:11:02;3.80;;;1.75;;
25091;SDS011;13082;52.374;4.946;2022-08-23T14:13:28;2.75;;;1.90;;
25091;SDS011;13082;52.374;4.946;2022-08-23T14:15:55;2.53;;;1.80;;
25091;SDS011;13082;52.374;4.946;2022-08-23T14:18:31;2.65;;;2.05;;
25091;SDS011;13082;52.374;4.946;2022-08-23T14:20:58;5.43;;;2.20;;
25091;SDS011;13082;52.374;4.946;2022-08-23T14:23:24;3.22;;;1.75;;
25091;SDS011;13082;52.374;4.946;2022-08-23T14:25:50;4.70;;;1.70;;
25091;SDS011;13082;52.374;4.946;2022-08-23T14:28:19;2.30;;;1.80;;
25091;SDS011;13082;52.374;4.946;2022-08-23T14:30:47;3.45;;;1.88;;
25091;SDS011;13082;52.374;4.946;2022-08-23T14:33:13;1.63;;;1.52;;
25091;SDS011;13082;52.374;4.946;2022-08-23T14:35:39;5.18;;;2.00;;
25091;SDS011;13082;52.374;4.946;2022-08-23T14:38:05;4.35;;;1.95;;
25091;SDS011;13082;52.374;4.946;2022-08-23T14:40:31;2.55;;;1.50;;
25091;SDS011;13082;52.374;4.946;2022-08-23T14:42:59;4.72;;;1.98;;
25091;SDS011;13082;52.374;4.946;2022-08-23T14:45:24;3.10;;;1.90;;
25091;SDS011;13082;52.374;4.946;2022-08-23T14:47:51;3.58;;;1.92;;
25091;SDS011;13082;52.374;4.946;2022-08-23T14:50:16;6.20;;;2.08;;
25091;SDS011;13082;52.374;4.946;2022-08-23T14:52:43;4.60;;;2.30;;
25091;SDS011;13082;52.374;4.946;2022-08-23T14:55:10;3.38;;;1.80;;
25091;SDS011;13082;52.374;4.946;2022-08-23T14:57:37;5.88;;;2.10;;
25091;SDS011;13082;52.374;4.946;2022-08-23T15:00:06;3.30;;;2.10;;
25091;SDS011;13082;52.374;4.946;2022-08-23T15:02:37;4.38;;;1.98;;
25091;SDS011;13082;52.374;4.946;2022-08-23T15:05:06;3.08;;;1.60;;
25091;SDS011;13082;52.374;4.946;2022-08-23T15:07:32;4.75;;;2.22;;
25091;SDS011;13082;52.374;4.946;2022-08-23T15:09:57;3.20;;;1.58;;
25091;SDS011;13082;52.374;4.946;2022-08-23T15:12:23;2.45;;;2.15;;
25091;SDS011;13082;52.374;4.946;2022-08-23T15:14:48;3.33;;;2.00;;
25091;SDS011;13082;52.374;4.946;2022-08-23T15:17:15;3.47;;;1.98;;
25091;SDS011;13082;52.374;4.946;2022-08-23T15:19:41;2.17;;;1.98;;
25091;SDS011;13082;52.374;4.946;2022-08-23T15:22:06;4.57;;;1.60;;
25091;SDS011;13082;52.374;4.946;2022-08-23T15:24:32;3.70;;;1.98;;
25091;SDS011;13082;52.374;4.946;2022-08-23T15:27:05;3.13;;;1.85;;
25091;SDS011;13082;52.374;4.946;2022-08-23T15:29:31;4.18;;;2.20;;
25091;SDS011;13082;52.374;4.946;2022-08-23T15:31:57;3.05;;;2.22;;
25091;SDS011;13082;52.374;4.946;2022-08-23T15:34:22;3.85;;;2.20;;
25091;SDS011;13082;52.374;4.946;2022-08-23T15:36:48;5.03;;;2.90;;
25091;SDS011;13082;52.374;4.946;2022-08-23T15:39:14;4.60;;;2.53;;
25091;SDS011;13082;52.374;4.946;2022-08-23T15:41:41;4.70;;;2.50;;
25091;SDS011;13082;52.374;4.946;2022-08-23T15:44:06;4.88;;;2.13;;
25091;SDS011;13082;52.374;4.946;2022-08-23T15:46:32;3.58;;;2.67;;
25091;SDS011;13082;52.374;4.946;2022-08-23T15:48:59;3.25;;;2.08;;
25091;SDS011;13082;52.374;4.946;2022-08-23T15:51:28;5.47;;;2.72;;
25091;SDS011;13082;52.374;4.946;2022-08-23T15:53:55;4.80;;;2.78;;
25091;SDS011;13082;52.374;4.946;2022-08-23T15:56:23;4.38;;;2.13;;
25091;SDS011;13082;52.374;4.946;2022-08-23T15:58:55;7.20;;;2.63;;
25091;SDS011;13082;52.374;4.946;2022-08-23T16:01:21;4.60;;;2.95;;
25091;SDS011;13082;52.374;4.946;2022-08-23T16:03:48;4.63;;;2.97;;
25091;SDS011;13082;52.374;4.946;2022-08-23T16:06:14;4.82;;;2.90;;
25091;SDS011;13082;52.374;4.946;2022-08-23T16:08:41;5.20;;;3.15;;
25091;SDS011;13082;52.374;4.946;2022-08-23T16:11:09;4.88;;;3.17;;
25091;SDS011;13082;52.374;4.946;2022-08-23T16:13:40;7.03;;;3.00;;
25091;SDS011;13082;52.374;4.946;2022-08-23T16:16:31;7.05;;;2.88;;
25091;SDS011;13082;52.374;4.946;2022-08-23T16:18:55;4.00;;;2.80;;
25091;SDS011;13082;52.374;4.946;2022-08-23T16:21:22;8.07;;;2.88;;
25091;SDS011;13082;52.374;4.946;2022-08-23T16:23:50;6.43;;;2.63;;
25091;SDS011;13082;52.374;4.946;2022-08-23T16:26:18;3.85;;;2.38;;
25091;SDS011;13082;52.374;4.946;2022-08-23T16:28:47;3.38;;;2.58;;
25091;SDS011;13082;52.374;4.946;2022-08-23T16:31:14;3.53;;;2.92;;
25091;SDS011;13082;52.374;4.946;2022-08-23T16:33:41;4.10;;;3.28;;
25091;SDS011;13082;52.374;4.946;2022-08-23T16:36:07;5.00;;;2.95;;
25091;SDS011;13082;52.374;4.946;2022-08-23T16:38:34;6.00;;;3.30;;
25091;SDS011;13082;52.374;4.946;2022-08-23T16:41:00;4.10;;;2.60;;
25091;SDS011;13082;52.374;4.946;2022-08-23T16:43:26;4.80;;;3.00;;
25091;SDS011;13082;52.374;4.946;2022-08-23T16:45:52;6.55;;;3.38;;
25091;SDS011;13082;52.374;4.946;2022-08-23T16:48:17;4.75;;;2.55;;
25091;SDS011;13082;52.374;4.946;2022-08-23T16:50:43;3.47;;;2.55;;
25091;SDS011;13082;52.374;4.946;2022-08-23T16:53:09;4.97;;;2.55;;
25091;SDS011;13082;52.374;4.946;2022-08-23T16:55:35;4.28;;;3.10;;
25091;SDS011;13082;52.374;4.946;2022-08-23T16:58:02;4.78;;;3.03;;